createdAt,value
2018-10-01T00:02:25.698Z,14.86
2018-10-01T00:04:54.078Z,14.81
2018-10-01T00:07:22.395Z,14.75
2018-10-01T00:09:50.702Z,14.74
2018-10-01T00:12:19.050Z,14.74
2018-10-01T00:14:47.357Z,14.83
2018-10-01T00:17:15.687Z,14.86
2018-10-01T00:19:49.377Z,14.89
2018-10-01T00:22:22.857Z,14.92
2018-10-01T00:24:51.154Z,14.96
2018-10-01T00:27:19.514Z,14.94
2018-10-01T00:29:47.814Z,14.89
2018-10-01T00:32:16.389Z,14.84
2018-10-01T00:34:44.761Z,14.84
2018-10-01T00:37:13.034Z,14.84
2018-10-01T00:39:41.441Z,14.88
2018-10-01T00:42:09.998Z,14.83
2018-10-01T00:44:38.393Z,14.82
2018-10-01T00:47:07.147Z,14.83
2018-10-01T00:49:35.413Z,14.81
2018-10-01T00:52:03.683Z,14.78
2018-10-01T00:54:32.097Z,14.75
2018-10-01T00:57:00.437Z,14.74
2018-10-01T00:59:28.751Z,14.78
2018-10-01T01:01:57.339Z,14.79
2018-10-01T01:04:25.697Z,14.81
2018-10-01T01:06:54.700Z,14.78
2018-10-01T01:09:23.183Z,14.72
2018-10-01T01:11:51.567Z,14.69
2018-10-01T01:14:19.855Z,14.63
2018-10-01T01:16:48.321Z,14.58
2018-10-01T01:19:16.817Z,14.52
2018-10-01T01:21:45.281Z,14.37
2018-10-01T01:24:13.766Z,14.31
2018-10-01T01:26:42.217Z,14.31
2018-10-01T01:29:10.501Z,14.43
2018-10-01T01:31:38.981Z,14.43
2018-10-01T01:34:07.683Z,14.38
2018-10-01T01:36:36.080Z,14.42
2018-10-01T01:39:06.318Z,14.45
2018-10-01T01:41:34.605Z,14.38
2018-10-01T01:44:03.046Z,14.37
2018-10-01T01:46:31.462Z,14.33
2018-10-01T01:48:59.785Z,14.33
2018-10-01T01:51:28.061Z,14.32
2018-10-01T01:53:56.350Z,14.30
2018-10-01T01:56:24.734Z,14.28
2018-10-01T01:58:53.014Z,14.28
2018-10-01T02:01:21.690Z,14.32
2018-10-01T02:03:51.242Z,14.34
2018-10-01T02:06:19.560Z,14.34
2018-10-01T02:08:47.860Z,14.35
2018-10-01T02:11:16.142Z,14.36
2018-10-01T02:13:44.427Z,14.36
2018-10-01T02:16:12.835Z,14.37
2018-10-01T02:18:41.159Z,14.37
2018-10-01T02:21:09.450Z,14.36
2018-10-01T02:23:37.942Z,14.34
2018-10-01T02:26:06.250Z,14.30
2018-10-01T02:28:34.551Z,14.30
2018-10-01T02:31:02.882Z,14.34
2018-10-01T02:33:31.318Z,14.36
2018-10-01T02:35:59.606Z,14.37
2018-10-01T02:38:27.964Z,14.37
2018-10-01T02:40:56.370Z,14.37
2018-10-01T02:43:24.765Z,14.36
2018-10-01T02:45:53.073Z,14.37
2018-10-01T02:48:21.358Z,14.40
2018-10-01T02:50:49.684Z,14.43
2018-10-01T02:53:23.491Z,14.46
2018-10-01T02:55:51.818Z,14.48
2018-10-01T02:58:20.102Z,14.50
2018-10-01T03:00:48.919Z,14.56
2018-10-01T03:03:17.214Z,14.62
2018-10-01T03:05:45.898Z,14.65
2018-10-01T03:08:14.403Z,14.70
2018-10-01T03:10:42.766Z,14.76
2018-10-01T03:13:11.111Z,14.84
2018-10-01T03:15:39.534Z,14.87
2018-10-01T03:18:08.262Z,14.89
2018-10-01T03:20:36.902Z,14.88
2018-10-01T03:23:05.338Z,14.91
2018-10-01T03:25:33.804Z,14.93
2018-10-01T03:28:02.282Z,14.95
2018-10-01T03:30:30.658Z,15.00
2018-10-01T03:32:58.978Z,15.01
2018-10-01T03:35:27.280Z,15.00
2018-10-01T03:37:55.930Z,14.99
2018-10-01T03:40:24.206Z,14.99
2018-10-01T03:42:52.547Z,15.02
2018-10-01T03:45:21.587Z,15.03
2018-10-01T03:47:49.867Z,15.05
2018-10-01T03:50:18.157Z,15.03
2018-10-01T03:52:46.518Z,15.00
2018-10-01T03:55:15.038Z,14.92
2018-10-01T03:57:43.364Z,14.89
2018-10-01T04:00:11.782Z,14.84
2018-10-01T04:02:40.122Z,14.75
2018-10-01T04:05:08.414Z,14.65
2018-10-01T04:07:43.948Z,14.59
2018-10-01T04:10:12.527Z,14.47
2018-10-01T04:12:40.891Z,14.43
2018-10-01T04:15:09.268Z,14.39
2018-10-01T04:17:37.655Z,14.40
2018-10-01T04:20:06.163Z,14.38
2018-10-01T04:22:37.568Z,14.33
2018-10-01T04:25:06.927Z,14.29
2018-10-01T04:27:35.760Z,14.30
2018-10-01T04:30:04.689Z,14.26
2018-10-01T04:32:33.569Z,14.24
2018-10-01T04:35:01.866Z,14.24
2018-10-01T04:37:30.244Z,14.24
2018-10-01T04:39:58.599Z,14.23
2018-10-01T04:42:26.885Z,14.23
2018-10-01T04:44:56.195Z,14.22
2018-10-01T04:47:24.551Z,14.25
2018-10-01T04:49:52.933Z,14.23
2018-10-01T04:52:21.491Z,14.23
2018-10-01T04:54:49.931Z,14.21
2018-10-01T04:57:18.241Z,14.22
2018-10-01T04:59:46.563Z,14.28
2018-10-01T05:02:14.920Z,14.31
2018-10-01T05:04:43.201Z,14.33
2018-10-01T05:07:11.579Z,14.37
2018-10-01T05:09:39.868Z,14.41
2018-10-01T05:12:08.169Z,14.47
2018-10-01T05:14:36.512Z,14.49
2018-10-01T05:17:04.982Z,14.48
2018-10-01T05:19:33.262Z,14.46
2018-10-01T05:22:01.562Z,14.42
2018-10-01T05:24:30.338Z,14.39
2018-10-01T05:26:58.833Z,14.39
2018-10-01T05:29:27.216Z,14.40
2018-10-01T05:31:55.530Z,14.44
2018-10-01T05:34:23.926Z,14.44
2018-10-01T05:36:52.435Z,14.45
2018-10-01T05:39:20.797Z,14.49
2018-10-01T05:41:49.201Z,14.52
2018-10-01T05:44:17.522Z,14.56
2018-10-01T05:46:45.846Z,14.60
2018-10-01T05:49:14.277Z,14.62
2018-10-01T05:51:42.662Z,14.65
2018-10-01T05:54:11.002Z,14.67
2018-10-01T05:56:39.300Z,14.69
2018-10-01T05:59:07.886Z,14.71
2018-10-01T06:01:36.219Z,14.73
2018-10-01T06:04:04.700Z,14.74
2018-10-01T06:06:33.005Z,14.79
2018-10-01T06:09:01.336Z,14.79
2018-10-01T06:11:29.745Z,14.80
2018-10-01T06:13:58.245Z,14.82
2018-10-01T06:16:26.552Z,14.83
2018-10-01T06:18:54.819Z,14.82
2018-10-01T06:21:23.158Z,14.80
2018-10-01T06:23:51.434Z,14.79
2018-10-01T06:26:20.702Z,14.79
2018-10-01T06:28:49.113Z,14.80
2018-10-01T06:31:17.462Z,14.81
2018-10-01T06:33:45.837Z,14.80
2018-10-01T06:36:14.188Z,14.81
2018-10-01T06:38:42.506Z,14.78
2018-10-01T06:41:10.766Z,14.80
2018-10-01T06:43:39.286Z,14.80
2018-10-01T06:46:07.858Z,14.78
2018-10-01T06:48:36.238Z,14.79
2018-10-01T06:51:04.700Z,14.83
2018-10-01T06:53:32.970Z,14.87
2018-10-01T06:56:01.390Z,14.89
2018-10-01T06:58:29.752Z,14.92
2018-10-01T07:00:58.115Z,14.92
2018-10-01T07:03:26.595Z,14.91
2018-10-01T07:05:55.092Z,14.90
2018-10-01T07:08:23.259Z,14.92
2018-10-01T07:10:51.563Z,14.89
2018-10-01T07:13:19.891Z,14.89
2018-10-01T07:15:48.257Z,14.87
2018-10-01T07:18:16.566Z,14.86
2018-10-01T07:20:44.991Z,14.87
2018-10-01T07:23:13.464Z,14.86
2018-10-01T07:25:41.760Z,14.88
2018-10-01T07:28:10.125Z,14.87
2018-10-01T07:30:38.445Z,14.88
2018-10-01T07:33:07.163Z,14.89
2018-10-01T07:35:35.499Z,14.90
2018-10-01T07:38:03.826Z,14.90
2018-10-01T07:40:32.121Z,14.87
2018-10-01T07:43:00.421Z,14.84
2018-10-01T07:45:28.717Z,14.80
2018-10-01T07:47:57.032Z,14.78
2018-10-01T07:50:25.685Z,14.78
2018-10-01T07:52:53.979Z,14.76
2018-10-01T07:55:22.289Z,14.74
2018-10-01T07:57:50.927Z,14.73
2018-10-01T08:00:19.449Z,14.70
2018-10-01T08:02:47.819Z,14.70
2018-10-01T08:05:16.267Z,14.70
2018-10-01T08:07:44.558Z,14.71
2018-10-01T08:10:12.845Z,14.70
2018-10-01T08:12:41.249Z,14.68
2018-10-01T08:15:09.780Z,14.68
2018-10-01T08:17:38.086Z,14.64
2018-10-01T08:20:06.587Z,14.60
2018-10-01T08:22:35.134Z,14.54
2018-10-01T08:25:03.529Z,14.50
2018-10-01T08:27:31.857Z,14.48
2018-10-01T08:30:00.478Z,14.46
2018-10-01T08:32:28.799Z,14.43
2018-10-01T08:34:57.318Z,14.41
2018-10-01T08:37:25.477Z,14.40
2018-10-01T08:39:53.883Z,14.39
2018-10-01T08:42:22.227Z,14.34
2018-10-01T08:44:50.716Z,14.27
2018-10-01T08:47:19.165Z,14.25
2018-10-01T08:50:22.056Z,14.22
2018-10-01T08:52:53.859Z,14.11
2018-10-01T08:55:22.915Z,14.04
2018-10-01T08:57:51.203Z,13.99
2018-10-01T09:00:19.593Z,13.94
2018-10-01T09:02:48.033Z,13.95
2018-10-01T09:05:16.451Z,13.99
2018-10-01T09:07:44.741Z,14.03
2018-10-01T09:10:13.139Z,13.98
2018-10-01T09:12:41.557Z,13.95
2018-10-01T09:15:09.963Z,13.97
2018-10-01T09:17:38.555Z,14.00
2018-10-01T09:20:07.626Z,14.01
2018-10-01T09:22:35.931Z,13.96
2018-10-01T09:25:04.300Z,13.94
2018-10-01T09:27:32.672Z,13.91
2018-10-01T09:30:01.059Z,13.87
2018-10-01T09:32:29.502Z,13.77
2018-10-01T09:34:57.905Z,13.69
2018-10-01T09:37:26.195Z,13.68
2018-10-01T09:39:54.555Z,13.72
2018-10-01T09:42:22.925Z,13.76
2018-10-01T09:44:51.247Z,13.75
2018-10-01T09:47:19.707Z,13.72
2018-10-01T09:49:47.987Z,13.68
2018-10-01T09:52:16.374Z,13.65
2018-10-01T09:54:45.612Z,13.62
2018-10-01T09:57:14.787Z,13.49
2018-10-01T09:59:50.031Z,13.38
2018-10-01T10:02:18.426Z,13.35
2018-10-01T10:04:46.744Z,13.22
2018-10-01T10:07:15.003Z,13.11
2018-10-01T10:09:43.334Z,13.09
2018-10-01T10:12:11.761Z,13.05
2018-10-01T10:14:40.229Z,13.02
2018-10-01T10:17:08.659Z,13.02
2018-10-01T10:19:37.026Z,12.90
2018-10-01T10:22:05.554Z,12.87
2018-10-01T10:24:33.877Z,12.78
2018-10-01T10:27:02.259Z,12.67
2018-10-01T10:29:30.672Z,12.53
2018-10-01T10:31:59.230Z,12.48
2018-10-01T10:34:27.634Z,12.45
2018-10-01T10:36:55.983Z,12.47
2018-10-01T10:39:24.404Z,12.52
2018-10-01T10:41:52.747Z,12.47
2018-10-01T10:44:21.094Z,12.44
2018-10-01T10:46:49.408Z,12.45
2018-10-01T10:49:17.882Z,12.32
2018-10-01T10:51:46.291Z,12.29
2018-10-01T10:54:14.834Z,12.31
2018-10-01T10:56:43.307Z,12.29
2018-10-01T10:59:11.746Z,12.24
2018-10-01T11:01:40.096Z,12.17
2018-10-01T11:04:08.536Z,12.18
2018-10-01T11:06:36.851Z,12.23
2018-10-01T11:09:07.582Z,12.22
2018-10-01T11:11:36.079Z,12.25
2018-10-01T11:14:04.558Z,12.30
2018-10-01T11:16:32.818Z,12.27
2018-10-01T11:19:01.291Z,12.17
2018-10-01T11:21:29.607Z,12.10
2018-10-01T11:23:57.943Z,12.05
2018-10-01T11:26:26.828Z,11.99
2018-10-01T11:28:55.546Z,11.92
2018-10-01T11:31:23.985Z,11.87
2018-10-01T11:33:52.343Z,11.84
2018-10-01T11:36:20.667Z,11.75
2018-10-01T11:38:49.025Z,11.70
2018-10-01T11:41:17.506Z,11.65
2018-10-01T11:43:45.920Z,11.69
2018-10-01T11:46:14.229Z,11.65
2018-10-01T11:48:42.505Z,11.53
2018-10-01T11:51:11.008Z,11.45
2018-10-01T11:53:39.298Z,11.36
2018-10-01T11:56:07.709Z,11.31
2018-10-01T11:58:36.388Z,11.23
2018-10-01T12:01:04.666Z,11.21
2018-10-01T12:03:33.074Z,11.25
2018-10-01T12:06:01.522Z,11.26
2018-10-01T12:08:29.892Z,11.26
2018-10-01T12:10:58.377Z,11.26
2018-10-01T12:13:26.697Z,11.32
2018-10-01T12:15:55.215Z,11.32
2018-10-01T12:18:23.385Z,11.34
2018-10-01T12:20:51.801Z,11.42
2018-10-01T12:23:20.108Z,11.44
2018-10-01T12:25:48.387Z,11.45
2018-10-01T12:28:16.705Z,11.42
2018-10-01T12:30:45.068Z,11.39
2018-10-01T12:33:13.733Z,11.43
2018-10-01T12:35:42.060Z,11.47
2018-10-01T12:38:10.413Z,11.54
2018-10-01T12:40:39.429Z,11.59
2018-10-01T12:43:07.837Z,11.64
2018-10-01T12:45:36.254Z,11.66
2018-10-01T12:48:04.637Z,11.66
2018-10-01T12:50:33.324Z,11.65
2018-10-01T12:53:01.801Z,11.59
2018-10-01T12:55:30.206Z,11.59
2018-10-01T12:57:58.579Z,11.60
2018-10-01T13:00:26.943Z,11.54
2018-10-01T13:02:55.337Z,11.55
2018-10-01T13:05:23.650Z,11.60
2018-10-01T13:07:52.135Z,11.64
2018-10-01T13:10:20.487Z,11.70
2018-10-01T13:12:48.963Z,11.79
2018-10-01T13:15:17.254Z,11.84
2018-10-01T13:17:45.609Z,11.89
2018-10-01T13:20:13.929Z,11.92
2018-10-01T13:22:42.325Z,11.92
2018-10-01T13:25:10.732Z,11.96
2018-10-01T13:27:39.187Z,11.92
2018-10-01T13:30:07.709Z,11.86
2018-10-01T13:32:35.961Z,11.77
2018-10-01T13:35:04.674Z,11.73
2018-10-01T13:37:33.041Z,11.77
2018-10-01T13:40:01.430Z,11.73
2018-10-01T13:42:29.863Z,11.73
2018-10-01T13:44:58.167Z,11.71
2018-10-01T13:47:26.653Z,11.67
2018-10-01T13:49:55.293Z,11.62
2018-10-01T13:52:23.616Z,11.60
2018-10-01T13:54:52.012Z,11.62
2018-10-01T13:57:20.497Z,11.62
2018-10-01T13:59:48.849Z,11.67
2018-10-01T14:02:17.587Z,11.72
2018-10-01T14:04:45.929Z,11.79
2018-10-01T14:07:14.391Z,11.85
2018-10-01T14:09:42.689Z,11.85
2018-10-01T14:12:11.264Z,11.86
2018-10-01T14:14:39.681Z,11.93
2018-10-01T14:17:08.699Z,11.98
2018-10-01T14:19:37.100Z,12.04
2018-10-01T14:22:05.481Z,12.03
2018-10-01T14:24:33.883Z,11.99
2018-10-01T14:27:02.266Z,11.93
2018-10-01T14:29:30.728Z,11.91
2018-10-01T14:31:59.101Z,11.91
2018-10-01T14:34:27.526Z,11.91
2018-10-01T14:36:55.906Z,11.90
2018-10-01T14:39:24.175Z,11.82
2018-10-01T14:41:52.725Z,11.75
2018-10-01T14:44:21.219Z,11.73
2018-10-01T14:46:49.530Z,11.72
2018-10-01T14:49:17.879Z,11.70
2018-10-01T14:51:46.499Z,11.65
2018-10-01T14:54:14.829Z,11.63
2018-10-01T14:56:43.238Z,11.62
2018-10-01T14:59:11.577Z,11.61
2018-10-01T15:01:39.869Z,11.58
2018-10-01T15:04:08.316Z,11.58
2018-10-01T15:06:36.798Z,11.56
2018-10-01T15:09:08.375Z,11.55
2018-10-01T15:11:36.797Z,11.50
2018-10-01T15:14:05.242Z,11.52
2018-10-01T15:16:33.561Z,11.53
2018-10-01T15:19:02.512Z,11.54
2018-10-01T15:21:31.210Z,11.55
2018-10-01T15:23:59.849Z,11.59
2018-10-01T15:26:28.270Z,11.63
2018-10-01T15:28:56.954Z,11.72
2018-10-01T15:31:25.306Z,11.68
2018-10-01T15:33:53.630Z,11.64
2018-10-01T15:36:21.979Z,11.61
2018-10-01T15:38:50.370Z,11.57
2018-10-01T15:41:19.605Z,11.51
2018-10-01T15:43:48.914Z,11.47
2018-10-01T15:46:17.534Z,11.41
2018-10-01T15:48:45.866Z,11.42
2018-10-01T15:51:14.249Z,11.39
2018-10-01T15:53:42.602Z,11.34
2018-10-01T15:56:11.077Z,11.29
2018-10-01T15:58:39.506Z,11.27
2018-10-01T16:01:07.910Z,11.28
2018-10-01T16:03:36.237Z,11.26
2018-10-01T16:06:04.666Z,11.26
2018-10-01T16:08:33.056Z,11.25
2018-10-01T16:11:01.519Z,11.19
2018-10-01T16:13:29.903Z,11.18
2018-10-01T16:15:58.253Z,11.19
2018-10-01T16:18:26.700Z,11.21
2018-10-01T16:20:55.030Z,11.21
2018-10-01T16:23:23.610Z,11.19
2018-10-01T16:25:52.206Z,11.17
2018-10-01T16:28:20.505Z,11.15
2018-10-01T16:30:48.804Z,11.19
2018-10-01T16:33:17.173Z,11.18
2018-10-01T16:35:45.509Z,11.20
2018-10-01T16:38:13.922Z,11.17
2018-10-01T16:40:42.513Z,11.12
2018-10-01T16:43:10.859Z,11.09
2018-10-01T16:45:39.327Z,10.96
2018-10-01T16:48:07.729Z,10.90
2018-10-01T16:50:36.289Z,10.83
2018-10-01T16:53:04.773Z,10.76
2018-10-01T16:55:33.184Z,10.72
2018-10-01T16:58:01.531Z,10.74
2018-10-01T17:00:29.957Z,10.75
2018-10-01T17:02:58.345Z,10.73
2018-10-01T17:05:26.953Z,10.68
2018-10-01T17:07:55.333Z,10.62
2018-10-01T17:10:24.038Z,10.61
2018-10-01T17:12:52.509Z,10.65
2018-10-01T17:15:21.090Z,10.66
2018-10-01T17:17:49.481Z,10.61
2018-10-01T17:20:17.939Z,10.58
2018-10-01T17:22:46.395Z,10.58
2018-10-01T17:25:15.131Z,10.57
2018-10-01T17:27:43.495Z,10.54
2018-10-01T17:30:11.983Z,10.53
2018-10-01T17:32:40.205Z,10.50
2018-10-01T17:35:08.634Z,10.49
2018-10-01T17:37:36.989Z,10.47
2018-10-01T17:40:05.630Z,10.46
2018-10-01T17:42:33.983Z,10.47
2018-10-01T17:45:02.366Z,10.48
2018-10-01T17:47:31.086Z,10.41
2018-10-01T17:49:59.424Z,10.35
2018-10-01T17:52:27.803Z,10.38
2018-10-01T17:54:56.202Z,10.42
2018-10-01T17:57:24.570Z,10.48
2018-10-01T17:59:52.954Z,10.49
2018-10-01T18:02:21.482Z,10.46
2018-10-01T18:04:49.799Z,10.48
2018-10-01T18:07:18.271Z,10.43
2018-10-01T18:09:46.691Z,10.43
2018-10-01T18:12:15.080Z,10.48
2018-10-01T18:14:43.411Z,10.49
2018-10-01T18:17:11.758Z,10.50
2018-10-01T18:19:40.253Z,10.48
2018-10-01T18:22:08.647Z,10.44
2018-10-01T18:24:37.137Z,10.44
2018-10-01T18:27:05.727Z,10.42
2018-10-01T18:29:34.094Z,10.42
2018-10-01T18:32:02.571Z,10.46
2018-10-01T18:34:30.926Z,10.42
2018-10-01T18:36:59.419Z,10.41
2018-10-01T18:39:29.890Z,10.39
2018-10-01T18:41:58.411Z,10.39
2018-10-01T18:44:26.673Z,10.39
2018-10-01T18:46:55.031Z,10.34
2018-10-01T18:49:23.576Z,10.29
2018-10-01T18:51:52.062Z,10.30
2018-10-01T18:54:20.543Z,10.24
2018-10-01T18:56:48.914Z,10.24
2018-10-01T18:59:17.273Z,10.24
2018-10-01T19:01:45.714Z,10.24
2018-10-01T19:04:14.054Z,10.26
2018-10-01T19:06:43.063Z,10.18
2018-10-01T19:09:12.202Z,10.15
2018-10-01T19:11:41.102Z,10.14
2018-10-01T19:14:09.842Z,10.16
2018-10-01T19:16:38.281Z,10.19
2018-10-01T19:19:07.234Z,10.21
2018-10-01T19:21:35.735Z,10.21
2018-10-01T19:24:04.194Z,10.28
2018-10-01T19:26:33.238Z,10.32
2018-10-01T19:29:01.602Z,10.36
2018-10-01T19:31:30.065Z,10.37
2018-10-01T19:33:58.443Z,10.33
2018-10-01T19:36:26.764Z,10.29
2018-10-01T19:38:55.190Z,10.25
2018-10-01T19:41:23.531Z,10.21
2018-10-01T19:43:51.878Z,10.23
2018-10-01T19:46:20.382Z,10.25
2018-10-01T19:48:48.686Z,10.24
2018-10-01T19:51:17.042Z,10.19
2018-10-01T19:53:45.429Z,10.14
2018-10-01T19:56:13.790Z,10.10
2018-10-01T19:58:42.304Z,10.05
2018-10-01T20:01:10.578Z,10.02
2018-10-01T20:03:38.926Z,10.00
2018-10-01T20:06:07.302Z,9.98
2018-10-01T20:08:35.744Z,9.95
2018-10-01T20:11:04.144Z,9.96
2018-10-01T20:13:32.526Z,9.94
2018-10-01T20:16:01.095Z,9.93
2018-10-01T20:18:29.222Z,9.91
2018-10-01T20:20:57.763Z,9.91
2018-10-01T20:23:26.054Z,9.91
2018-10-01T20:25:54.609Z,9.90
2018-10-01T20:28:23.138Z,9.89
2018-10-01T20:30:51.698Z,9.88
2018-10-01T20:33:19.993Z,9.85
2018-10-01T20:35:48.366Z,9.86
2018-10-01T20:38:16.875Z,9.91
2018-10-01T20:40:45.248Z,9.93
2018-10-01T20:43:13.480Z,9.93
2018-10-01T20:45:42.054Z,9.94
2018-10-01T20:48:10.284Z,9.95
2018-10-01T20:50:38.554Z,9.97
2018-10-01T20:53:07.251Z,10.00
2018-10-01T20:55:35.566Z,9.98
2018-10-01T20:58:03.977Z,9.99
2018-10-01T21:00:32.394Z,10.03
2018-10-01T21:03:00.718Z,10.07
2018-10-01T21:05:29.175Z,10.07
2018-10-01T21:07:58.242Z,10.15
2018-10-01T21:10:26.557Z,10.23
2018-10-01T21:12:54.940Z,10.31
2018-10-01T21:15:23.346Z,10.25
2018-10-01T21:17:51.710Z,10.19
2018-10-01T21:20:20.101Z,10.14
2018-10-01T21:22:48.665Z,10.18
2018-10-01T21:25:17.113Z,10.23
2018-10-01T21:27:45.383Z,10.29
2018-10-01T21:30:13.753Z,10.38
2018-10-01T21:32:42.080Z,10.40
2018-10-01T21:35:10.450Z,10.35
2018-10-01T21:37:38.949Z,10.32
2018-10-01T21:40:11.302Z,10.28
2018-10-01T21:42:39.836Z,10.28
2018-10-01T21:45:09.118Z,10.27
2018-10-01T21:47:37.458Z,10.30
2018-10-01T21:50:06.201Z,10.31
2018-10-01T21:52:34.521Z,10.31
2018-10-01T21:55:02.994Z,10.25
2018-10-01T21:57:31.441Z,10.19
2018-10-01T21:59:59.887Z,10.15
2018-10-01T22:02:28.261Z,10.10
2018-10-01T22:04:56.758Z,10.02
2018-10-01T22:07:25.095Z,9.95
2018-10-01T22:09:53.482Z,9.93
2018-10-01T22:12:21.886Z,9.89
2018-10-01T22:14:50.242Z,9.77
2018-10-01T22:17:18.614Z,9.69
2018-10-01T22:19:47.056Z,9.65
2018-10-01T22:22:15.341Z,9.61
2018-10-01T22:24:43.649Z,9.55
2018-10-01T22:27:12.237Z,9.49
2018-10-01T22:29:40.643Z,9.47
2018-10-01T22:32:08.977Z,9.51
2018-10-01T22:34:37.402Z,9.51
2018-10-01T22:37:05.753Z,9.56
2018-10-01T22:39:34.197Z,9.63
2018-10-01T22:42:02.523Z,9.73
2018-10-01T22:44:30.966Z,9.78
2018-10-01T22:46:59.267Z,9.73
2018-10-01T22:49:27.557Z,9.69
2018-10-01T22:51:55.947Z,9.72
2018-10-01T22:54:24.295Z,9.79
2018-10-01T22:56:52.871Z,9.80
2018-10-01T22:59:21.244Z,9.76
2018-10-01T23:01:49.626Z,9.79
2018-10-01T23:04:18.065Z,9.86
2018-10-01T23:06:47.361Z,9.86
2018-10-01T23:09:15.640Z,9.84
2018-10-01T23:11:44.108Z,9.85
2018-10-01T23:14:12.413Z,9.87
2018-10-01T23:16:40.692Z,9.84
2018-10-01T23:19:09.022Z,9.77
2018-10-01T23:21:37.337Z,9.72
2018-10-01T23:24:05.678Z,9.71
2018-10-01T23:26:34.033Z,9.68
2018-10-01T23:29:02.296Z,9.65
2018-10-01T23:31:30.585Z,9.59
2018-10-01T23:33:58.978Z,9.50
2018-10-01T23:36:28.221Z,9.43
2018-10-01T23:38:56.527Z,9.42
2018-10-01T23:41:25.135Z,9.37
2018-10-01T23:43:53.497Z,9.32
2018-10-01T23:46:21.896Z,9.23
2018-10-01T23:48:50.467Z,9.11
2018-10-01T23:51:18.894Z,8.95
2018-10-01T23:53:47.312Z,8.87
2018-10-01T23:56:15.625Z,8.79
2018-10-01T23:58:44.062Z,8.68
